createdAt,value
2018-02-16T00:44:34.629Z,0.00
2018-02-16T00:45:34.529Z,0.00
2018-02-16T00:46:34.505Z,0.00
2018-02-16T00:47:34.496Z,0.00
2018-02-16T00:48:34.506Z,0.00
2018-02-16T00:49:34.456Z,0.00
2018-02-16T00:50:34.509Z,0.00
2018-02-16T00:51:34.426Z,0.00
2018-02-16T00:52:34.408Z,0.00
2018-02-16T00:53:34.389Z,0.00
2018-02-16T00:54:34.375Z,0.00
2018-02-16T00:55:34.361Z,0.00
2018-02-16T00:56:34.385Z,0.00
2018-02-16T00:57:34.331Z,0.00
2018-02-16T00:58:34.337Z,0.00
2018-02-16T00:59:34.295Z,0.00
2018-02-16T01:00:34.277Z,0.00
2018-02-16T01:01:34.260Z,0.00
2018-02-16T01:02:34.247Z,0.00
2018-02-16T01:03:34.217Z,0.00
2018-02-16T01:04:34.198Z,0.00
2018-02-16T01:05:34.204Z,0.00
2018-02-16T01:06:34.162Z,0.00
2018-02-16T01:07:34.233Z,0.00
2018-02-16T01:08:34.137Z,0.00
2018-02-16T01:09:34.116Z,0.00
2018-02-16T01:10:34.122Z,0.00
2018-02-16T01:11:34.070Z,0.00
2018-02-16T01:12:34.056Z,0.00
2018-02-16T01:13:34.078Z,0.00
2018-02-16T01:14:34.102Z,0.00
2018-02-16T01:15:34.067Z,0.00
2018-02-16T01:16:33.989Z,0.00
2018-02-16T01:17:33.970Z,0.00
2018-02-16T01:18:33.956Z,0.00
2018-02-16T01:19:33.938Z,0.00
2018-02-16T01:20:33.931Z,0.00
2018-02-16T01:21:33.969Z,0.00
2018-02-16T01:22:33.891Z,0.00
2018-02-16T01:23:33.878Z,0.00
2018-02-16T01:24:33.847Z,0.00
2018-02-16T01:25:33.833Z,0.00
2018-02-16T01:26:33.825Z,0.00
2018-02-16T01:27:33.800Z,0.00
2018-02-16T01:28:33.784Z,0.00
2018-02-16T01:29:33.760Z,0.00
2018-02-16T01:30:33.784Z,0.00
2018-02-16T01:31:33.749Z,0.00
2018-02-16T01:32:33.703Z,0.00
2018-02-16T01:33:33.692Z,0.00
2018-02-16T01:34:33.674Z,0.00
2018-02-16T01:35:33.686Z,0.00
2018-02-16T01:36:33.659Z,0.00
2018-02-16T01:37:33.621Z,0.00
2018-02-16T01:38:33.645Z,0.00
2018-02-16T01:39:33.596Z,0.00
2018-02-16T01:40:33.595Z,0.00
2018-02-16T01:41:33.554Z,0.00
2018-02-16T01:42:33.539Z,0.00
2018-02-16T01:43:33.520Z,0.00
2018-02-16T01:44:33.517Z,0.00
2018-02-16T01:45:33.487Z,0.00
2018-02-16T01:46:33.607Z,0.00
2018-02-16T01:47:33.470Z,0.00
2018-02-16T01:48:33.441Z,0.00
2018-02-16T01:49:33.421Z,0.00
2018-02-16T01:50:33.401Z,0.00
2018-02-16T01:51:33.420Z,0.00
2018-02-16T01:52:33.369Z,0.00
2018-02-16T01:53:33.348Z,0.00
2018-02-16T01:54:33.328Z,0.00
2018-02-16T01:55:33.330Z,0.00
2018-02-16T01:56:33.322Z,0.00
2018-02-16T01:57:33.328Z,0.00
2018-02-16T01:58:33.328Z,0.00
2018-02-16T01:59:33.246Z,0.00
2018-02-16T02:00:33.231Z,0.00
2018-02-16T02:01:33.212Z,0.00
2018-02-16T02:02:33.209Z,0.00
2018-02-16T02:03:33.173Z,0.00
2018-02-16T02:04:33.163Z,0.00
2018-02-16T02:05:33.144Z,0.00
2018-02-16T02:06:33.125Z,0.00
2018-02-16T02:07:33.107Z,0.00
2018-02-16T02:08:33.080Z,0.00
2018-02-16T02:09:33.155Z,0.00
2018-02-16T02:10:33.057Z,0.00
2018-02-16T02:11:33.039Z,0.00
2018-02-16T02:12:33.066Z,0.00
2018-02-16T02:13:33.003Z,0.00
2018-02-16T02:14:32.986Z,0.00
2018-02-16T02:15:32.988Z,0.00
2018-02-16T02:16:32.946Z,0.00
2018-02-16T02:17:32.924Z,0.00
2018-02-16T02:18:32.905Z,0.00
2018-02-16T02:19:32.901Z,0.00
2018-02-16T02:20:32.912Z,0.00
2018-02-16T02:21:32.863Z,0.00
2018-02-16T02:22:32.842Z,0.00
2018-02-16T02:23:32.881Z,0.00
2018-02-16T02:24:32.814Z,0.00
2018-02-16T02:25:32.792Z,0.00
2018-02-16T02:26:32.777Z,0.00
2018-02-16T02:27:32.770Z,0.00
2018-02-16T02:28:32.747Z,0.00
2018-02-16T02:29:32.729Z,0.00
2018-02-16T02:30:32.764Z,0.00
2018-02-16T02:31:32.684Z,0.00
2018-02-16T02:32:32.663Z,0.00
2018-02-16T02:33:32.663Z,0.00
2018-02-16T02:34:32.634Z,0.00
2018-02-16T02:35:32.619Z,0.00
2018-02-16T02:36:32.692Z,0.00
2018-02-16T02:37:32.603Z,0.00
2018-02-16T02:38:32.597Z,0.00
2018-02-16T02:39:32.547Z,0.00
2018-02-16T02:40:32.557Z,0.00
2018-02-16T02:41:32.593Z,0.00
2018-02-16T02:42:32.506Z,0.00
2018-02-16T02:43:32.481Z,0.00
2018-02-16T02:44:32.507Z,0.00
2018-02-16T02:45:32.452Z,0.00
2018-02-16T02:46:32.427Z,0.00
2018-02-16T02:47:32.449Z,0.00
2018-02-16T02:48:32.415Z,0.00
2018-02-16T02:49:32.382Z,0.00
2018-02-16T02:50:32.373Z,0.00
2018-02-16T02:51:32.387Z,0.00
2018-02-16T02:52:32.402Z,0.00
2018-02-16T02:53:32.304Z,0.00
2018-02-16T02:54:32.287Z,0.00
2018-02-16T02:55:32.274Z,0.00
2018-02-16T02:56:32.277Z,0.00
2018-02-16T02:57:32.236Z,0.00
2018-02-16T02:58:32.228Z,0.00
2018-02-16T02:59:32.212Z,0.00
2018-02-16T03:00:32.185Z,0.00
2018-02-16T03:01:32.173Z,0.00
2018-02-16T03:02:32.154Z,0.00
2018-02-16T03:03:32.156Z,0.00
2018-02-16T03:04:32.123Z,0.00
2018-02-16T03:05:32.107Z,0.00
2018-02-16T03:06:32.112Z,0.00
2018-02-16T03:07:32.057Z,0.00
2018-02-16T03:08:32.081Z,0.00
2018-02-16T03:09:32.027Z,0.00
2018-02-16T03:10:32.022Z,0.00
2018-02-16T03:11:31.997Z,0.00
2018-02-16T03:12:31.975Z,0.00
2018-02-16T03:13:31.983Z,0.00
2018-02-16T03:14:31.950Z,0.00
2018-02-16T03:15:31.918Z,0.00
2018-02-16T03:16:31.907Z,0.00
2018-02-16T03:17:31.953Z,0.00
2018-02-16T03:18:31.865Z,0.00
2018-02-16T03:19:31.922Z,0.00
2018-02-16T03:20:31.824Z,0.00
2018-02-16T03:21:31.814Z,0.00
2018-02-16T03:22:31.800Z,0.00
2018-02-16T03:23:31.790Z,0.00
2018-02-16T03:24:31.767Z,0.00
2018-02-16T03:25:31.758Z,0.00
2018-02-16T03:26:31.729Z,0.00
2018-02-16T03:27:31.718Z,0.00
2018-02-16T03:28:52.735Z,0.00
2018-02-16T03:29:31.688Z,0.00
2018-02-16T03:30:31.696Z,0.00
2018-02-16T03:31:31.653Z,0.00
2018-02-16T03:32:31.656Z,0.00
2018-02-16T03:33:31.646Z,0.00
2018-02-16T03:34:31.725Z,0.00
2018-02-16T03:35:31.610Z,0.00
2018-02-16T03:36:31.651Z,0.00
2018-02-16T03:37:31.538Z,0.00
2018-02-16T03:38:31.600Z,0.00
2018-02-16T03:39:31.538Z,0.00
2018-02-16T03:40:31.536Z,0.00
2018-02-16T03:41:31.466Z,0.00
2018-02-16T03:42:31.466Z,0.00
2018-02-16T03:43:31.445Z,0.00
2018-02-16T03:44:43.378Z,0.00
2018-02-16T03:45:31.458Z,0.00
2018-02-16T03:46:31.386Z,0.00
2018-02-16T03:47:31.619Z,0.00
2018-02-16T03:48:31.364Z,0.00
2018-02-16T03:49:31.376Z,0.00
2018-02-16T07:56:44.675Z,84.38
2018-02-16T07:57:44.727Z,90.00
2018-02-16T07:58:44.602Z,84.38
2018-02-16T07:59:44.558Z,90.00
2018-02-16T08:00:45.615Z,90.00
2018-02-16T08:01:44.727Z,95.63
2018-02-16T08:02:44.589Z,84.38
2018-02-16T08:03:44.545Z,95.63
2018-02-16T08:04:44.531Z,90.00
2018-02-16T08:05:44.546Z,101.25
2018-02-16T08:06:44.561Z,101.25
2018-02-16T08:07:44.527Z,118.13
2018-02-16T08:08:44.430Z,78.75
2018-02-16T08:09:44.360Z,112.50
2018-02-16T08:10:44.349Z,106.88
2018-02-16T08:11:44.366Z,123.75
2018-02-16T08:12:44.301Z,140.63
2018-02-16T08:13:44.283Z,118.13
2018-02-16T08:14:44.270Z,118.13
2018-02-16T08:15:44.255Z,90.00
2018-02-16T08:16:44.231Z,90.00
2018-02-16T08:17:44.279Z,123.75
2018-02-16T08:18:44.193Z,106.88
2018-02-16T08:19:44.258Z,95.63
2018-02-16T08:20:44.152Z,95.63
2018-02-16T08:21:44.132Z,101.25
2018-02-16T08:22:44.175Z,101.25
2018-02-16T08:23:44.869Z,95.63
2018-02-16T08:24:44.083Z,90.00
2018-02-16T08:25:44.075Z,95.63
2018-02-16T08:26:44.044Z,112.50
2018-02-16T08:27:44.030Z,112.50
2018-02-16T08:28:44.044Z,112.50
2018-02-16T08:29:44.004Z,112.50
2018-02-16T08:30:43.984Z,123.75
2018-02-16T08:31:43.971Z,112.50
2018-02-16T08:32:43.940Z,112.50
2018-02-16T08:33:43.954Z,123.75
2018-02-16T08:34:43.912Z,129.38
2018-02-16T08:35:43.888Z,140.63
2018-02-16T08:36:43.874Z,123.75
2018-02-16T08:37:43.858Z,135.00
2018-02-16T08:38:43.868Z,135.00
2018-02-16T08:39:43.811Z,129.38
2018-02-16T08:40:43.792Z,140.63
2018-02-16T08:41:43.812Z,151.88
2018-02-16T08:42:43.756Z,180.00
2018-02-16T08:43:43.735Z,135.00
2018-02-16T08:44:43.730Z,140.63
2018-02-16T08:45:44.369Z,140.63
2018-02-16T08:46:43.701Z,135.00
2018-02-16T08:47:44.110Z,135.00
2018-02-16T08:48:43.646Z,151.88
2018-02-16T08:49:44.035Z,140.63
2018-02-16T08:50:43.619Z,140.63
2018-02-16T08:51:43.949Z,135.00
2018-02-16T08:52:44.150Z,135.00
2018-02-16T08:53:43.565Z,163.13
2018-02-16T08:54:43.602Z,129.38
2018-02-16T08:55:43.527Z,123.75
2018-02-16T08:56:43.507Z,146.25
2018-02-16T08:57:44.133Z,146.25
2018-02-16T08:58:43.471Z,146.25
2018-02-16T08:59:44.136Z,146.25
2018-02-16T09:00:43.491Z,146.25
2018-02-16T09:01:43.467Z,185.63
2018-02-16T09:02:43.406Z,140.63
2018-02-16T09:03:43.479Z,135.00
2018-02-16T09:04:43.498Z,140.63
2018-02-16T09:05:43.475Z,135.00
2018-02-16T09:06:43.327Z,140.63
2018-02-16T09:07:43.314Z,163.13
2018-02-16T09:08:43.293Z,191.25
2018-02-16T09:09:43.288Z,196.88
2018-02-16T09:10:43.259Z,163.13
2018-02-16T09:11:43.258Z,140.63
2018-02-16T09:12:43.234Z,140.63
2018-02-16T09:13:43.319Z,140.63
2018-02-16T09:14:47.295Z,157.50
2018-02-16T09:15:43.179Z,225.00
2018-02-16T09:16:43.186Z,174.38
2018-02-16T09:17:43.139Z,163.13
2018-02-16T09:18:43.174Z,151.88
2018-02-16T09:19:43.102Z,180.00
2018-02-16T09:20:43.113Z,202.50
2018-02-16T09:21:43.120Z,230.63
2018-02-16T09:22:43.063Z,253.13
2018-02-16T09:23:43.068Z,247.50
2018-02-16T09:24:43.020Z,202.50
2018-02-16T09:25:43.176Z,208.13
2018-02-16T09:26:43.010Z,180.00
2018-02-16T09:27:43.077Z,174.38
2018-02-16T09:28:42.968Z,196.88
2018-02-16T09:29:42.949Z,213.75
2018-02-16T09:30:42.926Z,225.00
2018-02-16T09:31:42.943Z,270.00
2018-02-16T09:32:42.879Z,208.13
2018-02-16T09:33:42.869Z,208.13
2018-02-16T09:34:42.943Z,196.88
2018-02-16T09:35:42.835Z,236.25
2018-02-16T09:36:42.882Z,219.38
2018-02-16T09:37:42.829Z,219.38
2018-02-16T09:38:42.785Z,208.13
2018-02-16T09:39:42.768Z,219.38
2018-02-16T09:40:42.749Z,225.00
2018-02-16T09:41:42.752Z,270.00
2018-02-16T09:42:42.804Z,213.75
2018-02-16T09:43:42.710Z,180.00
2018-02-16T09:44:42.682Z,225.00
2018-02-16T09:45:42.660Z,236.25
2018-02-16T09:46:42.648Z,258.75
2018-02-16T09:47:42.630Z,236.25
2018-02-16T09:48:42.633Z,258.75
2018-02-16T09:49:42.593Z,225.00
2018-02-16T09:50:42.779Z,208.13
2018-02-16T09:51:42.559Z,213.75
2018-02-16T09:52:42.592Z,236.25
2018-02-16T09:53:42.529Z,168.75
2018-02-16T09:54:42.583Z,258.75
2018-02-16T09:55:42.500Z,253.13
2018-02-16T09:56:42.476Z,298.13
2018-02-16T09:57:42.490Z,213.75
2018-02-16T09:58:42.457Z,185.63
2018-02-16T09:59:42.429Z,258.75
2018-02-16T10:00:42.416Z,196.88
2018-02-16T10:01:42.398Z,230.63
2018-02-16T10:02:42.383Z,281.25
2018-02-16T10:03:42.374Z,281.25
2018-02-16T10:04:42.397Z,230.63
2018-02-16T10:05:42.335Z,247.50
2018-02-16T10:06:42.322Z,213.75
2018-02-16T10:07:42.308Z,258.75
2018-02-16T10:08:42.914Z,303.75
2018-02-16T10:09:42.263Z,360.00
2018-02-16T10:10:42.245Z,315.00
2018-02-16T10:11:42.239Z,326.25
2018-02-16T10:12:42.221Z,348.75
2018-02-16T10:13:42.556Z,326.25
2018-02-16T10:14:42.187Z,258.75
2018-02-16T10:15:42.165Z,348.75
2018-02-16T10:16:42.149Z,371.25
2018-02-16T10:17:42.128Z,393.75
2018-02-16T10:18:42.115Z,388.13
2018-02-16T10:19:42.092Z,331.88
2018-02-16T10:20:42.086Z,253.13
2018-02-16T10:21:42.063Z,292.50
2018-02-16T10:22:42.075Z,303.75
2018-02-16T10:23:42.046Z,320.63
2018-02-16T10:24:42.187Z,399.38
2018-02-16T10:25:42.038Z,376.88
2018-02-16T10:26:41.981Z,393.75
2018-02-16T10:27:41.971Z,315.00
2018-02-16T10:28:42.015Z,337.50
2018-02-16T10:29:41.940Z,382.50
2018-02-16T10:30:41.935Z,365.63
2018-02-16T10:31:41.900Z,286.88
2018-02-16T10:32:41.884Z,275.63
2018-02-16T10:33:41.877Z,410.63
2018-02-16T10:34:41.853Z,354.38
2018-02-16T10:35:41.854Z,461.25
2018-02-16T10:36:41.826Z,298.13
2018-02-16T10:37:41.816Z,247.50
2018-02-16T10:38:41.795Z,298.13
2018-02-16T10:39:41.772Z,320.63
2018-02-16T10:40:41.760Z,343.13
2018-02-16T10:41:41.741Z,360.00
2018-02-16T10:42:41.724Z,309.38
2018-02-16T10:43:41.750Z,298.13
2018-02-16T10:44:41.695Z,444.38
2018-02-16T10:45:41.680Z,360.00
2018-02-16T10:46:41.657Z,292.50
2018-02-16T10:47:41.649Z,438.75
2018-02-16T10:48:41.669Z,371.25
2018-02-16T10:49:41.656Z,286.88
2018-02-16T10:50:41.603Z,320.63
2018-02-16T10:51:41.577Z,315.00
2018-02-16T10:52:41.567Z,326.25
2018-02-16T10:53:41.560Z,275.63
2018-02-16T10:54:42.764Z,292.50
2018-02-16T10:55:41.525Z,247.50
2018-02-16T10:56:41.509Z,275.63
2018-02-16T10:57:41.483Z,247.50
2018-02-16T10:58:41.470Z,281.25
2018-02-16T10:59:41.499Z,202.50
2018-02-16T11:00:41.442Z,230.63
2018-02-16T11:01:41.424Z,208.13
2018-02-16T11:02:41.421Z,196.88
2018-02-16T11:03:41.400Z,236.25
2018-02-16T11:04:41.374Z,343.13
2018-02-16T11:05:41.367Z,309.38
2018-02-16T11:06:41.336Z,196.88
2018-02-16T11:07:41.340Z,213.75
2018-02-16T11:08:41.309Z,219.38
2018-02-16T11:09:41.296Z,151.88
2018-02-16T11:10:41.368Z,185.63
2018-02-16T11:11:41.261Z,236.25
2018-02-16T11:12:41.240Z,191.25
2018-02-16T11:13:41.237Z,225.00
2018-02-16T11:14:41.210Z,213.75
2018-02-16T11:15:41.222Z,202.50
2018-02-16T11:16:41.174Z,230.63
2018-02-16T11:17:41.160Z,275.63
2018-02-16T11:18:41.139Z,258.75
2018-02-16T11:19:41.132Z,247.50
2018-02-16T11:20:41.165Z,292.50
2018-02-16T11:21:41.093Z,331.88
2018-02-16T11:22:41.085Z,360.00
2018-02-16T11:23:41.086Z,376.88
2018-02-16T11:24:41.046Z,337.50
2018-02-16T11:25:41.027Z,247.50
2018-02-16T11:26:41.077Z,247.50
2018-02-16T11:27:40.995Z,213.75
2018-02-16T11:28:49.924Z,180.00
2018-02-16T11:29:40.964Z,213.75
2018-02-16T11:30:40.960Z,253.13
2018-02-16T11:31:40.935Z,225.00
2018-02-16T11:32:40.925Z,270.00
2018-02-16T11:33:40.910Z,253.13
2018-02-16T11:34:40.890Z,258.75
2018-02-16T11:35:40.870Z,275.63
2018-02-16T11:36:40.856Z,286.88
2018-02-16T11:37:40.839Z,298.13
2018-02-16T11:38:40.813Z,326.25
2018-02-16T11:39:40.795Z,326.25
2018-02-16T11:40:40.793Z,360.00
2018-02-16T11:41:40.765Z,303.75
2018-02-16T11:42:40.791Z,438.75
2018-02-16T11:43:40.731Z,421.88
2018-02-16T11:44:40.719Z,331.88
2018-02-16T11:45:40.750Z,309.38
2018-02-16T11:46:40.690Z,275.63
2018-02-16T11:47:40.672Z,320.63
2018-02-16T11:48:40.667Z,315.00
2018-02-16T11:49:40.636Z,253.13
2018-02-16T11:50:40.630Z,258.75
2018-02-16T11:51:40.637Z,219.38
2018-02-16T11:52:40.601Z,213.75
2018-02-16T11:53:40.577Z,180.00
2018-02-16T11:54:40.553Z,196.88
2018-02-16T11:55:40.538Z,208.13
2018-02-16T11:56:40.556Z,241.88
2018-02-16T11:57:40.511Z,270.00
2018-02-16T11:58:40.496Z,185.63
2018-02-16T11:59:40.479Z,191.25
2018-02-16T12:00:40.703Z,163.13
2018-02-16T12:01:40.473Z,174.38
2018-02-16T12:02:40.448Z,208.13
2018-02-16T12:03:40.415Z,663.75
2018-02-16T12:04:40.397Z,236.25
2018-02-16T12:05:40.433Z,466.88
2018-02-16T12:06:40.375Z,371.25
2018-02-16T12:07:40.350Z,360.00
2018-02-16T12:08:40.339Z,388.13
2018-02-16T12:09:40.318Z,309.38
2018-02-16T12:10:40.303Z,320.63
2018-02-16T12:11:40.291Z,669.38
2018-02-16T12:12:40.340Z,219.38
2018-02-16T12:13:40.262Z,241.88
2018-02-16T12:14:40.244Z,247.50
2018-02-16T12:15:40.235Z,213.75
2018-02-16T12:16:40.222Z,258.75
2018-02-16T12:17:40.190Z,236.25
2018-02-16T12:18:40.239Z,236.25
2018-02-16T12:20:01.171Z,292.50
2018-02-16T12:20:40.152Z,230.63
2018-02-16T12:21:40.131Z,286.88
2018-02-16T12:22:40.117Z,286.88
2018-02-16T12:23:40.099Z,230.63
2018-02-16T12:24:40.089Z,247.50
2018-02-16T12:25:40.065Z,466.88
2018-02-16T12:26:40.048Z,298.13
2018-02-16T12:27:40.035Z,264.38
2018-02-16T12:28:40.020Z,213.75
2018-02-16T12:29:40.002Z,225.00
2018-02-16T12:30:39.979Z,320.63
2018-02-16T12:31:39.970Z,174.38
2018-02-16T12:32:39.948Z,168.75
2018-02-16T12:33:39.937Z,174.38
2018-02-16T12:34:39.926Z,225.00
2018-02-16T12:35:39.911Z,315.00
2018-02-16T12:36:39.879Z,286.88
2018-02-16T12:37:39.879Z,270.00
2018-02-16T12:38:39.872Z,292.50
2018-02-16T12:39:39.880Z,511.88
2018-02-16T12:40:39.819Z,360.00
2018-02-16T12:41:39.853Z,326.25
2018-02-16T12:42:39.784Z,478.13
2018-02-16T12:43:39.779Z,461.25
2018-02-16T12:44:39.786Z,798.75
2018-02-16T12:45:39.749Z,275.63
2018-02-16T12:46:39.743Z,298.13
2018-02-16T12:47:39.711Z,292.50
2018-02-16T12:48:39.703Z,562.50
2018-02-16T12:49:39.683Z,540.00
2018-02-16T12:50:39.658Z,613.13
2018-02-16T12:51:39.685Z,1170.00
2018-02-16T12:52:39.639Z,309.38
2018-02-16T12:53:39.618Z,292.50
2018-02-16T12:54:40.879Z,196.88
2018-02-16T12:55:39.591Z,208.13
2018-02-16T12:56:39.568Z,236.25
2018-02-16T12:57:39.616Z,219.38
2018-02-16T12:58:39.553Z,151.88
2018-02-16T12:59:39.519Z,157.50
2018-02-16T13:00:39.512Z,185.63
2018-02-16T13:01:39.512Z,315.00
2018-02-16T13:02:39.864Z,590.63
2018-02-16T13:03:39.578Z,376.88
2018-02-16T13:04:39.621Z,478.13
2018-02-16T13:05:39.435Z,450.00
2018-02-16T13:06:39.486Z,427.50
2018-02-16T13:07:39.463Z,388.13
2018-02-16T13:08:39.396Z,157.50
2018-02-16T13:09:39.435Z,410.63
2018-02-16T13:10:39.354Z,405.00
2018-02-16T13:11:39.340Z,337.50
2018-02-16T13:12:39.327Z,393.75
2018-02-16T13:13:39.317Z,421.88
2018-02-16T13:14:39.292Z,450.00
2018-02-16T13:15:39.306Z,343.13
2018-02-16T13:16:39.264Z,286.88
2018-02-16T13:17:39.258Z,275.63
2018-02-16T13:18:39.224Z,326.25
2018-02-16T13:19:39.275Z,450.00
2018-02-16T13:20:39.198Z,461.25
2018-02-16T13:21:39.187Z,393.75
2018-02-16T13:22:39.165Z,348.75
2018-02-16T13:23:39.162Z,382.50
2018-02-16T13:24:39.141Z,360.00
2018-02-16T13:25:39.186Z,326.25
2018-02-16T13:26:39.111Z,433.13
2018-02-16T13:27:39.085Z,388.13
2018-02-16T13:28:39.077Z,275.63
2018-02-16T13:29:39.057Z,348.75
2018-02-16T13:30:39.036Z,354.38
2018-02-16T13:31:39.037Z,337.50
2018-02-16T13:32:39.008Z,348.75
2018-02-16T13:33:39.030Z,399.38
2018-02-16T13:34:38.981Z,247.50
2018-02-16T13:35:38.999Z,258.75
2018-02-16T13:36:38.954Z,421.88
2018-02-16T13:37:39.702Z,455.63
2018-02-16T13:38:38.911Z,405.00
2018-02-16T13:39:38.900Z,495.00
2018-02-16T13:40:39.998Z,517.50
2018-02-16T13:41:38.858Z,579.38
2018-02-16T13:42:38.860Z,472.50
2018-02-16T13:43:38.852Z,410.63
2018-02-16T13:44:38.827Z,393.75
2018-02-16T13:45:38.811Z,371.25
2018-02-16T13:46:38.829Z,601.88
2018-02-16T13:47:38.786Z,680.63
2018-02-16T13:48:38.768Z,517.50
2018-02-16T13:49:38.745Z,866.25
2018-02-16T13:50:38.772Z,590.63
2018-02-16T13:51:38.719Z,450.00
2018-02-16T13:52:39.437Z,405.00
2018-02-16T13:53:38.687Z,354.38
2018-02-16T13:54:38.689Z,337.50
2018-02-16T13:55:38.861Z,545.63
2018-02-16T13:56:38.704Z,748.13
2018-02-16T13:57:38.629Z,810.00
2018-02-16T13:58:38.623Z,258.75
2018-02-16T13:59:38.598Z,270.00
2018-02-16T14:00:40.856Z,883.13
2018-02-16T14:01:39.671Z,511.88
2018-02-16T14:02:38.700Z,534.38
2018-02-16T14:03:39.171Z,455.63
2018-02-16T14:04:38.539Z,461.25
2018-02-16T14:05:38.510Z,298.13
2018-02-16T14:06:38.561Z,281.25
2018-02-16T14:07:38.632Z,264.38
2018-02-16T14:08:38.486Z,247.50
2018-02-16T14:09:39.468Z,315.00
2018-02-16T14:10:38.593Z,180.00
2018-02-16T14:11:38.866Z,180.00
2018-02-16T14:12:38.417Z,590.63
2018-02-16T14:13:38.560Z,551.25
2018-02-16T14:14:38.510Z,630.00
2018-02-16T14:15:38.519Z,860.63
2018-02-16T14:16:38.382Z,911.25
2018-02-16T14:17:38.888Z,219.38
2018-02-16T14:18:38.951Z,219.38
2018-02-16T14:19:38.353Z,213.75
2018-02-16T14:20:38.508Z,202.50
2018-02-16T14:21:39.461Z,174.38
2018-02-16T14:22:38.724Z,168.75
2018-02-16T14:23:38.280Z,191.25
2018-02-16T14:24:38.286Z,253.13
2018-02-16T14:25:38.331Z,225.00
2018-02-16T14:29:35.248Z,258.75
2018-02-16T14:30:19.483Z,219.38
2018-02-16T14:46:09.284Z,781.88
2018-02-16T14:47:03.283Z,663.75
2018-02-16T14:48:03.239Z,742.50
2018-02-16T14:49:03.233Z,680.63
2018-02-16T14:50:03.353Z,624.38
2018-02-16T14:51:03.338Z,646.88
2018-02-16T14:52:03.226Z,669.38
2018-02-16T14:53:03.176Z,601.88
2018-02-16T14:54:03.165Z,573.75
2018-02-16T14:55:03.156Z,517.50
2018-02-16T14:56:03.148Z,489.38
2018-02-16T14:57:03.125Z,528.75
2018-02-16T14:58:03.129Z,500.63
2018-02-16T14:59:03.110Z,455.63
2018-02-16T15:00:03.112Z,292.50
2018-02-16T15:01:03.102Z,213.75
2018-02-16T15:02:03.118Z,202.50
2018-02-16T15:03:03.061Z,421.88
2018-02-16T15:04:04.383Z,253.13
2018-02-16T15:05:03.047Z,202.50
2018-02-16T15:06:05.136Z,292.50
2018-02-16T15:07:03.016Z,388.13
2018-02-16T15:08:08.543Z,331.88
2018-02-16T15:09:02.989Z,309.38
2018-02-16T15:10:02.980Z,331.88
2018-02-16T15:11:03.064Z,270.00
2018-02-16T15:12:03.421Z,275.63
2018-02-16T15:13:02.941Z,151.88
2018-02-16T15:14:02.970Z,151.88
2018-02-16T15:15:02.915Z,174.38
2018-02-16T15:16:02.947Z,281.25
2018-02-16T15:17:03.776Z,315.00
2018-02-16T15:18:03.124Z,309.38
2018-02-16T15:19:02.864Z,315.00
2018-02-16T15:20:02.864Z,196.88
2018-02-16T15:21:02.834Z,303.75
2018-02-16T15:22:02.862Z,112.50
2018-02-16T15:23:02.818Z,101.25
2018-02-16T15:24:02.802Z,101.25
2018-02-16T15:25:02.807Z,95.63
2018-02-16T15:26:03.303Z,90.00
2018-02-16T15:27:03.668Z,90.00
2018-02-16T15:28:03.446Z,90.00
2018-02-16T15:29:02.793Z,90.00
2018-02-16T15:30:03.013Z,84.38
2018-02-16T15:31:03.346Z,78.75
2018-02-16T15:32:02.802Z,78.75
2018-02-16T15:33:02.755Z,78.75
2018-02-16T15:34:02.864Z,78.75
2018-02-16T15:35:02.761Z,84.38
2018-02-16T15:36:02.789Z,101.25
2018-02-16T15:37:02.619Z,112.50
2018-02-16T15:38:02.715Z,185.63
2018-02-16T15:39:02.722Z,191.25
2018-02-16T15:40:02.917Z,191.25
2018-02-16T15:41:07.408Z,157.50
2018-02-16T15:42:02.664Z,163.13
2018-02-16T15:43:02.568Z,163.13
2018-02-16T15:44:02.543Z,157.50
2018-02-16T15:45:02.696Z,151.88
2018-02-16T15:46:02.690Z,151.88
2018-02-16T15:47:03.104Z,129.38
2018-02-16T15:48:02.541Z,112.50
2018-02-16T15:49:02.673Z,101.25
2018-02-16T15:50:02.490Z,112.50
2018-02-16T15:51:02.916Z,112.50
2018-02-16T15:52:02.407Z,112.50
2018-02-16T15:53:02.427Z,106.88
2018-02-16T15:54:02.380Z,106.88
2018-02-16T15:55:02.419Z,84.38
2018-02-16T15:56:02.378Z,106.88
2018-02-16T15:57:02.943Z,101.25
2018-02-16T15:58:02.329Z,84.38
2018-02-16T15:59:02.394Z,84.38
2018-02-16T16:00:02.404Z,90.00
2018-02-16T16:01:02.348Z,84.38
2018-02-16T16:02:02.511Z,84.38
2018-02-16T16:03:02.495Z,78.75
2018-02-16T16:04:02.453Z,73.13
2018-02-16T16:05:02.295Z,67.50
2018-02-16T16:06:07.109Z,56.25
2018-02-16T16:07:09.123Z,56.25
2018-02-16T16:08:03.125Z,50.63
2018-02-16T16:09:03.827Z,50.63
2018-02-16T16:10:09.524Z,50.63
2018-02-16T16:11:03.032Z,50.63
2018-02-16T16:12:02.399Z,45.00
2018-02-16T16:13:03.912Z,45.00
2018-02-16T16:14:07.881Z,39.38
2018-02-16T16:15:05.102Z,39.38
2018-02-16T16:16:03.945Z,33.75
2018-02-16T16:17:02.309Z,33.75
2018-02-16T16:18:30.341Z,28.13
2018-02-16T16:19:16.934Z,28.13
2018-02-16T16:20:08.928Z,28.13
2018-02-16T16:21:02.064Z,22.50
2018-02-16T16:22:02.037Z,22.50
